Jackson, Mississippi
Current Conditions -  °F | °C
As of 5:53 PM on Wednesday 22 Oct 2014 (Local Time) from KHKS Reporting Station
Clear Clear  
Wind Chill: 71°   Ceiling: Unl
Heat Index: 71°   Visibility: 10mi
Dew Point: 47°   Wind: 6mph
Humidity: 42%   Direction: 360°N
Pressure: 30.1"   Gusts: NA
Location:  32.3°N, 90.18°W
Report Text: KHKS 222253Z 36005KT 10SM CLR 22/08 A3010 RMK AO2 SLP185 T02170083
Loading
Personal Weather Stations






























Interactive Weather Map
Tropical Storm Tracking
New forecast layout! Learn more

10-Day Weather Forecast

Advertisements
Track Severe Weather on mobile